createdAt,value
2022-08-29T08:30:38.238Z,51.12
2022-08-29T08:32:45.722Z,51.16
2022-08-29T08:34:48.821Z,50.55
2022-08-29T08:36:56.562Z,49.81
2022-08-29T08:39:00.041Z,50.49
2022-08-29T08:41:10.773Z,50.51
2022-08-29T08:43:26.552Z,50.17
2022-08-29T08:45:40.744Z,50.38
2022-08-29T08:48:04.995Z,48.98
2022-08-29T08:50:18.784Z,48.52
2022-08-29T08:52:43.985Z,48.11
2022-08-29T08:54:53.319Z,48.33
2022-08-29T08:57:08.739Z,48.30
2022-08-29T08:59:20.426Z,48.00
2022-08-29T09:01:32.777Z,48.81
2022-08-29T09:03:50.564Z,49.09
2022-08-29T09:06:26.673Z,48.05
2022-08-29T09:08:43.013Z,47.98
2022-08-29T09:10:56.647Z,46.91
2022-08-29T09:13:29.390Z,47.58
2022-08-29T09:15:44.553Z,47.29
2022-08-29T09:18:01.021Z,47.61
2022-08-29T09:20:09.278Z,47.79
2022-08-29T09:22:26.790Z,47.42
2022-08-29T09:24:49.154Z,47.58
2022-08-29T09:26:51.771Z,47.86
2022-08-29T09:28:55.061Z,47.53
2022-08-29T09:31:25.444Z,47.09
2022-08-29T09:33:42.683Z,46.68
2022-08-29T09:35:49.774Z,46.94
2022-08-29T09:37:58.012Z,46.99
2022-08-29T09:40:10.781Z,46.82
2022-08-29T09:42:13.582Z,46.25
2022-08-29T09:44:22.537Z,46.11
2022-08-29T09:46:25.771Z,45.84
2022-08-29T09:48:32.135Z,45.68
2022-08-29T09:50:37.085Z,45.33
2022-08-29T09:53:01.475Z,45.67
2022-08-29T09:55:25.004Z,45.92
2022-08-29T09:57:29.356Z,44.94
2022-08-29T09:59:39.766Z,43.64
2022-08-29T10:01:44.277Z,43.84
2022-08-29T10:03:58.419Z,43.46
2022-08-29T10:06:14.279Z,42.34
2022-08-29T10:08:35.302Z,42.98
2022-08-29T10:10:52.134Z,43.24
2022-08-29T10:12:57.493Z,43.24
2022-08-29T10:15:05.846Z,43.05
2022-08-29T10:17:36.002Z,42.93
2022-08-29T10:19:38.308Z,42.52
2022-08-29T10:21:58.857Z,42.77
2022-08-29T10:24:31.107Z,42.38
2022-08-29T10:26:39.580Z,41.90
2022-08-29T10:28:52.069Z,41.63
2022-08-29T10:31:00.623Z,41.56
2022-08-29T10:33:12.041Z,41.43
2022-08-29T10:35:27.611Z,41.23
2022-08-29T10:37:42.469Z,41.05
2022-08-29T10:40:02.336Z,41.32
2022-08-29T10:42:12.532Z,41.58
2022-08-29T10:46:42.647Z,42.28
2022-08-29T10:48:47.967Z,42.15
2022-08-29T10:51:03.157Z,42.42
2022-08-29T10:53:32.281Z,41.74
2022-08-29T10:56:01.051Z,41.11
2022-08-29T10:58:12.448Z,40.36
2022-08-29T11:00:41.248Z,39.82
2022-08-29T11:02:54.641Z,39.91
2022-08-29T11:05:02.739Z,39.66
2022-08-29T11:07:16.372Z,38.88
2022-08-29T11:09:30.207Z,38.98
2022-08-29T11:11:36.490Z,39.24
2022-08-29T11:13:45.666Z,38.49
2022-08-29T11:15:54.191Z,37.87
2022-08-29T11:18:07.408Z,37.00
2022-08-29T11:20:20.495Z,36.48
2022-08-29T11:22:33.590Z,35.97
2022-08-29T11:24:42.002Z,35.84
2022-08-29T11:26:46.306Z,34.31
2022-08-29T11:28:57.923Z,32.83
2022-08-29T11:31:23.237Z,31.23
2022-08-29T11:34:03.353Z,30.28
2022-08-29T11:36:05.866Z,31.60
2022-08-29T11:38:38.783Z,33.74
2022-08-29T11:41:27.273Z,36.35
2022-08-29T11:43:37.482Z,32.50
2022-08-29T11:45:43.275Z,28.47
2022-08-29T11:47:46.390Z,27.79
2022-08-29T11:49:51.518Z,26.59
2022-08-29T11:51:58.371Z,28.19
2022-08-29T11:54:29.046Z,30.06
2022-08-29T11:56:31.888Z,28.64
2022-08-29T11:58:35.292Z,28.56
2022-08-29T12:00:47.680Z,26.53
2022-08-29T12:02:50.231Z,27.85
2022-08-29T12:04:54.632Z,30.02
2022-08-29T12:07:01.633Z,32.36
2022-08-29T12:09:14.081Z,33.61
2022-08-29T12:11:18.508Z,33.06
2022-08-29T12:13:53.197Z,30.52
2022-08-29T12:16:08.660Z,27.36
2022-08-29T12:18:13.443Z,26.28
2022-08-29T12:20:19.771Z,25.57
2022-08-29T12:24:50.959Z,28.68
2022-08-29T12:27:04.127Z,28.42
2022-08-29T12:29:16.648Z,26.04
2022-08-29T12:32:02.360Z,24.59
2022-08-29T12:34:23.470Z,24.41
2022-08-29T12:36:38.245Z,22.09
2022-08-29T12:38:51.157Z,22.57
2022-08-29T12:41:03.601Z,22.97
2022-08-29T12:43:25.647Z,22.24
2022-08-29T12:45:31.374Z,24.49
2022-08-29T12:47:44.062Z,23.58
2022-08-29T12:49:51.817Z,22.15
2022-08-29T12:52:01.863Z,21.94
2022-08-29T12:54:05.607Z,20.51
2022-08-29T12:56:20.221Z,20.27
2022-08-29T12:58:39.122Z,20.46
2022-08-29T13:00:41.709Z,20.38
2022-08-29T13:02:56.595Z,22.19
2022-08-29T13:04:59.696Z,22.06
2022-08-29T13:07:16.992Z,21.48
2022-08-29T13:09:32.221Z,21.25
2022-08-29T13:11:35.000Z,21.63
2022-08-29T13:13:38.225Z,21.12
2022-08-29T13:15:41.169Z,23.40
2022-08-29T13:17:47.403Z,26.28
2022-08-29T13:20:27.658Z,27.62
2022-08-29T13:22:32.060Z,28.92
2022-08-29T13:24:34.487Z,28.52
2022-08-29T13:26:43.100Z,28.13
2022-08-29T13:29:18.210Z,28.35
2022-08-29T13:31:21.480Z,27.41
2022-08-29T13:33:35.279Z,28.35
2022-08-29T13:35:38.483Z,29.13
2022-08-29T13:37:46.118Z,28.22
2022-08-29T13:39:48.865Z,28.19
2022-08-29T13:42:04.034Z,28.70
2022-08-29T13:44:07.449Z,28.94
2022-08-29T13:46:15.147Z,29.44
2022-08-29T13:48:20.446Z,30.03
2022-08-29T13:50:23.782Z,30.18
2022-08-29T13:52:31.746Z,30.15
2022-08-29T13:54:34.934Z,29.69
2022-08-29T13:58:44.900Z,30.72
2022-08-29T14:00:47.318Z,30.66
2022-08-29T14:02:51.376Z,30.68
2022-08-29T14:04:53.962Z,31.16
2022-08-29T14:06:56.479Z,31.38
2022-08-29T14:09:00.289Z,31.47
2022-08-29T14:11:02.618Z,32.15
2022-08-29T14:13:05.728Z,31.66
2022-08-29T14:15:10.827Z,31.35
2022-08-29T14:17:18.506Z,31.82
2022-08-29T14:19:21.334Z,31.82
2022-08-29T14:21:24.735Z,32.34
2022-08-29T14:23:27.045Z,32.47
2022-08-29T14:25:29.433Z,32.33
2022-08-29T14:27:32.764Z,32.74
2022-08-29T14:29:36.441Z,32.20
2022-08-29T14:31:38.959Z,32.49
2022-08-29T14:33:41.615Z,32.88
2022-08-29T14:35:44.085Z,33.06
2022-08-29T14:37:46.380Z,32.75
2022-08-29T14:39:49.880Z,32.95
2022-08-29T14:41:52.504Z,32.95
2022-08-29T14:43:54.848Z,33.04
2022-08-29T14:45:57.455Z,33.52
2022-08-29T14:47:59.785Z,34.03
2022-08-29T14:50:02.503Z,34.22
2022-08-29T14:52:05.722Z,33.52
2022-08-29T14:54:08.293Z,33.46
2022-08-29T14:56:25.418Z,34.51
2022-08-29T14:58:33.158Z,33.94
2022-08-29T15:00:35.491Z,33.78
2022-08-29T15:02:37.806Z,33.63
2022-08-29T15:04:40.543Z,34.26
2022-08-29T15:06:42.797Z,34.46
2022-08-29T15:08:45.346Z,34.57
2022-08-29T15:10:47.850Z,34.87
2022-08-29T15:12:51.140Z,34.89
2022-08-29T15:14:54.927Z,34.90
2022-08-29T15:16:57.559Z,34.53
2022-08-29T15:19:37.576Z,34.63
2022-08-29T15:21:26.185Z,34.68
2022-08-29T15:23:29.060Z,35.14
2022-08-29T15:25:31.696Z,35.25
2022-08-29T15:27:34.070Z,34.91
2022-08-29T15:29:37.612Z,35.08
2022-08-29T15:31:40.301Z,35.25
2022-08-29T15:33:42.698Z,35.00
2022-08-29T15:35:45.365Z,34.71
2022-08-29T15:37:47.912Z,34.48
2022-08-29T15:39:52.388Z,35.47
2022-08-29T15:42:00.683Z,37.52
2022-08-29T15:44:03.235Z,38.93
2022-08-29T15:46:06.239Z,41.77
2022-08-29T15:48:11.505Z,44.58
2022-08-29T15:50:16.731Z,46.65
2022-08-29T15:52:19.000Z,49.81
2022-08-29T15:54:23.578Z,52.77
2022-08-29T15:56:25.946Z,56.05
2022-08-29T15:58:28.233Z,57.83
2022-08-29T16:00:31.319Z,62.09
2022-08-29T16:02:34.035Z,64.21
2022-08-29T16:04:37.018Z,66.57
2022-08-29T16:06:39.401Z,65.83
2022-08-29T16:08:46.131Z,68.02
2022-08-29T16:10:49.150Z,66.60
2022-08-29T16:12:51.509Z,64.51
2022-08-29T16:14:59.615Z,62.28
2022-08-29T16:17:03.489Z,61.60
2022-08-29T16:19:06.560Z,60.79
2022-08-29T16:21:09.195Z,61.73
2022-08-29T16:23:11.758Z,61.37
2022-08-29T16:25:15.129Z,61.72
2022-08-29T16:27:22.092Z,61.38
2022-08-29T16:29:25.927Z,60.99
2022-08-29T16:31:29.583Z,61.53
2022-08-29T16:33:33.086Z,62.32
2022-08-29T16:35:35.383Z,63.97
2022-08-29T16:37:37.885Z,63.48
2022-08-29T16:39:40.504Z,63.29
2022-08-29T16:41:45.474Z,63.82
2022-08-29T16:43:51.814Z,63.58
2022-08-29T16:45:54.457Z,62.46
2022-08-29T16:47:57.673Z,62.51
2022-08-29T16:50:01.570Z,62.93
2022-08-29T16:52:06.552Z,62.69
2022-08-29T16:54:09.030Z,61.95
2022-08-29T16:56:14.224Z,61.59
2022-08-29T16:58:35.916Z,60.43
2022-08-29T17:00:38.948Z,59.59
2022-08-29T17:02:41.405Z,61.04
2022-08-29T17:04:46.292Z,60.16
2022-08-29T17:06:48.803Z,59.27
2022-08-29T17:08:51.040Z,57.96
2022-08-29T17:10:56.038Z,57.85
2022-08-29T17:12:58.302Z,56.41
2022-08-29T17:15:00.552Z,56.35
2022-08-29T17:17:03.797Z,55.76
2022-08-29T17:19:07.413Z,55.15
2022-08-29T17:21:09.892Z,55.63
2022-08-29T17:23:13.076Z,56.46
2022-08-29T17:25:15.399Z,57.78
2022-08-29T17:27:21.302Z,57.38
2022-08-29T17:29:24.308Z,57.47
2022-08-29T17:31:26.750Z,56.48
2022-08-29T17:33:29.787Z,55.43
2022-08-29T17:35:32.379Z,54.28
2022-08-29T17:37:36.102Z,54.40
2022-08-29T17:39:40.090Z,54.24
2022-08-29T17:41:43.366Z,53.80
2022-08-29T17:43:48.026Z,53.23
2022-08-29T17:45:50.332Z,53.35
2022-08-29T17:47:52.899Z,53.39
2022-08-29T17:49:55.506Z,52.17
2022-08-29T17:51:57.830Z,52.26
2022-08-29T17:54:00.543Z,52.46
2022-08-29T17:56:19.652Z,52.60
2022-08-29T17:58:22.965Z,52.81
2022-08-29T18:00:25.731Z,53.76
2022-08-29T18:02:31.731Z,53.34
2022-08-29T18:04:34.270Z,53.69
2022-08-29T18:06:36.824Z,55.24
2022-08-29T18:08:40.208Z,55.59
2022-08-29T18:10:42.543Z,56.14
2022-08-29T18:12:45.600Z,56.78
2022-08-29T18:14:48.648Z,56.90
2022-08-29T18:16:52.519Z,56.07
2022-08-29T18:18:54.975Z,56.93
2022-08-29T18:20:57.575Z,56.34
2022-08-29T18:23:00.105Z,56.91
2022-08-29T18:25:02.695Z,57.07
2022-08-29T18:27:05.711Z,57.29
2022-08-29T18:29:08.167Z,57.26
2022-08-29T18:31:11.818Z,57.82
2022-08-29T18:33:21.404Z,58.37
2022-08-29T18:35:23.822Z,57.88
2022-08-29T18:37:26.282Z,57.69
2022-08-29T18:39:28.810Z,57.87
2022-08-29T18:41:31.556Z,57.68
2022-08-29T18:43:35.091Z,57.49
2022-08-29T18:45:39.254Z,57.00
2022-08-29T18:47:41.888Z,56.26
2022-08-29T18:50:03.111Z,55.82
2022-08-29T18:52:06.799Z,55.67
2022-08-29T18:54:10.644Z,55.47
2022-08-29T18:56:13.346Z,55.05
2022-08-29T18:58:17.413Z,55.05
2022-08-29T19:00:20.755Z,55.19
2022-08-29T19:02:23.506Z,55.70
2022-08-29T19:04:26.490Z,54.88
2022-08-29T19:06:29.471Z,54.88
2022-08-29T19:08:32.357Z,54.02
2022-08-29T19:10:35.352Z,54.45
2022-08-29T19:12:38.206Z,54.28
2022-08-29T19:14:46.123Z,54.47
2022-08-29T19:17:05.082Z,55.28
2022-08-29T19:19:13.259Z,55.31
2022-08-29T19:21:16.358Z,56.20
2022-08-29T19:23:21.175Z,56.35
2022-08-29T19:25:23.492Z,56.55
2022-08-29T19:27:42.275Z,57.26
2022-08-29T19:29:49.292Z,57.72
2022-08-29T19:31:57.298Z,58.18
2022-08-29T19:33:59.646Z,58.41
2022-08-29T19:36:05.281Z,58.06
2022-08-29T19:38:08.228Z,58.00
2022-08-29T19:40:12.416Z,57.84
2022-08-29T19:42:16.789Z,57.23
2022-08-29T19:44:19.491Z,57.36
2022-08-29T19:46:23.860Z,57.25
2022-08-29T19:48:27.775Z,57.59
2022-08-29T19:50:30.187Z,58.10
2022-08-29T19:52:32.794Z,57.99
2022-08-29T19:54:35.455Z,58.48
2022-08-29T19:56:38.000Z,58.87
2022-08-29T19:58:40.662Z,59.09
2022-08-29T20:00:44.176Z,59.42
2022-08-29T20:02:46.905Z,59.40
2022-08-29T20:04:49.432Z,59.83
2022-08-29T20:06:51.806Z,60.00
2022-08-29T20:08:57.804Z,60.09
2022-08-29T20:11:01.277Z,60.42
2022-08-29T20:13:03.670Z,61.15
2022-08-29T20:15:07.869Z,61.59
2022-08-29T20:17:14.950Z,61.06
2022-08-29T20:19:18.950Z,60.94
2022-08-29T20:21:23.446Z,61.49
2022-08-29T20:23:26.017Z,60.83
2022-08-29T20:25:29.058Z,61.04
2022-08-29T20:27:34.514Z,61.35
2022-08-29T20:29:37.046Z,60.82
2022-08-29T20:31:40.477Z,60.15
2022-08-29T20:33:44.896Z,60.07
2022-08-29T20:36:05.764Z,60.04
2022-08-29T20:38:08.966Z,60.87
2022-08-29T20:40:13.554Z,60.01
2022-08-29T20:42:18.210Z,59.01
2022-08-29T20:44:20.595Z,58.95
2022-08-29T20:46:23.192Z,58.48
2022-08-29T20:48:25.515Z,58.62
2022-08-29T20:50:33.856Z,58.63
2022-08-29T20:52:37.667Z,58.46
2022-08-29T20:54:40.466Z,58.78
2022-08-29T20:56:48.905Z,58.97
2022-08-29T20:58:51.500Z,58.70
2022-08-29T21:00:53.829Z,59.13
2022-08-29T21:03:14.760Z,59.08
2022-08-29T21:05:36.473Z,60.14
2022-08-29T21:07:38.743Z,59.69
2022-08-29T21:09:43.791Z,60.02
2022-08-29T21:11:46.386Z,61.05
2022-08-29T21:13:52.979Z,62.09
2022-08-29T21:15:55.841Z,62.08
2022-08-29T21:18:02.223Z,62.15
2022-08-29T21:20:04.871Z,62.40
2022-08-29T21:22:09.428Z,63.23
2022-08-29T21:24:12.699Z,63.47
2022-08-29T21:26:15.074Z,63.46
2022-08-29T21:28:17.353Z,64.18
2022-08-29T21:30:20.092Z,64.17
2022-08-29T21:32:22.591Z,64.39
2022-08-29T21:34:25.089Z,65.09
2022-08-29T21:36:29.278Z,64.38
2022-08-29T21:38:32.648Z,65.02
2022-08-29T21:40:35.782Z,65.14
2022-08-29T21:42:47.137Z,64.68
2022-08-29T21:44:49.479Z,64.36
2022-08-29T21:46:52.742Z,64.06
2022-08-29T21:48:57.853Z,64.29
2022-08-29T21:51:00.741Z,64.60
2022-08-29T21:53:05.455Z,65.12
2022-08-29T21:55:08.897Z,65.23
2022-08-29T21:57:29.952Z,65.44
2022-08-29T21:59:32.659Z,64.36
2022-08-29T22:01:39.069Z,64.28
2022-08-29T22:03:41.848Z,64.68
2022-08-29T22:05:44.275Z,63.68
2022-08-29T22:07:46.702Z,64.99
2022-08-29T22:09:49.928Z,64.64
2022-08-29T22:11:52.173Z,64.16
2022-08-29T22:13:55.098Z,63.02
2022-08-29T22:16:18.853Z,63.28
2022-08-29T22:18:22.390Z,63.32
2022-08-29T22:20:24.937Z,63.31
2022-08-29T22:22:27.511Z,62.78
2022-08-29T22:24:29.799Z,62.98
2022-08-29T22:26:34.970Z,63.01
2022-08-29T22:28:38.063Z,62.40
2022-08-29T22:30:40.418Z,62.68
2022-08-29T22:32:43.057Z,61.92
2022-08-29T22:34:55.350Z,61.63
2022-08-29T22:36:57.627Z,62.20
2022-08-29T22:39:00.102Z,62.41
2022-08-29T22:41:02.908Z,63.06
2022-08-29T22:43:05.181Z,62.22
